Time;durP1;ratioP1;P1;durP2;ratioP2;P2;SDS_P1;SDS_P2;PMS_P1;PMS_P2;Temp;Humidity;BMP_temperature;BMP_pressure;BME280_temperature;BME280_humidity;BME280_pressure;Samples;Min_cycle;Max_cycle;Signal;HPM_P1;HPM_P2
2023/03/08 00:00:04;;;;;;;1.27;0.90;;;20.80;48.50;;;;;;6129535;29;20050;-54
2023/03/08 00:03:15;;;;;;;1.58;0.70;;;20.60;48.60;;;;;;6127848;29;20044;-53
2023/03/08 00:06:17;;;;;;;1.75;0.80;;;20.50;48.60;;;;;;6128847;29;20040;-54
2023/03/08 00:09:20;;;;;;;1.02;0.63;;;20.50;48.70;;;;;;6128730;29;20054;-55
2023/03/08 00:12:22;;;;;;;1.60;0.90;;;20.70;48.90;;;;;;6128971;29;20040;-53
2023/03/08 00:15:24;;;;;;;;;;;20.80;49.00;;;;;;6129693;29;20073;-55
2023/03/08 00:18:26;;;;;;;1.05;0.70;;;20.60;48.90;;;;;;6128680;29;19973;-54
2023/03/08 00:21:28;;;;;;;1.17;0.70;;;20.80;48.90;;;;;;6129012;29;20044;-56
2023/03/08 00:24:32;;;;;;;;;;;20.60;48.90;;;;;;6129004;29;20129;-53
2023/03/08 00:27:34;;;;;;;1.23;0.52;;;20.80;49.10;;;;;;6128488;29;19962;-53
2023/03/08 00:30:36;;;;;;;0.98;0.60;;;20.60;48.80;;;;;;6128651;29;20054;-55
2023/03/08 00:33:40;;;;;;;1.55;0.63;;;20.60;49.00;;;;;;6128512;29;20420;-55
2023/03/08 00:36:44;;;;;;;2.17;0.68;;;20.50;49.10;;;;;;6128950;29;20039;-56
2023/03/08 00:39:50;;;;;;;1.38;0.80;;;20.70;49.30;;;;;;6126930;29;20048;-55
2023/03/08 00:42:51;;;;;;;1.50;0.70;;;20.80;49.50;;;;;;6127030;29;20047;-55
2023/03/08 00:45:54;;;;;;;1.90;0.80;;;20.60;49.40;;;;;;6128099;29;20048;-55
2023/03/08 00:48:57;;;;;;;1.23;0.70;;;20.80;49.60;;;;;;6127881;29;20535;-55
2023/03/08 00:52:01;;;;;;;2.70;1.05;;;20.70;49.60;;;;;;6128649;29;20493;-56
2023/03/08 00:55:02;;;;;;;1.90;0.90;;;20.70;49.80;;;;;;6128334;29;20582;-54
2023/03/08 00:58:04;;;;;;;;;;;20.60;49.80;;;;;;6128201;29;20408;-55
2023/03/08 01:01:07;;;;;;;1.90;0.90;;;20.60;49.90;;;;;;6128017;29;19923;-56
2023/03/08 01:04:09;;;;;;;1.67;0.88;;;20.80;49.90;;;;;;6126670;29;20592;-54
2023/03/08 01:07:10;;;;;;;;;;;20.50;50.00;;;;;;6127478;29;20055;-55
2023/03/08 01:10:12;;;;;;;;;;;20.60;50.10;;;;;;6128557;29;19934;-54
2023/03/08 01:13:14;;;;;;;2.38;0.80;;;20.80;50.10;;;;;;6127454;29;19935;-55
2023/03/08 01:16:21;;;;;;;1.60;0.70;;;20.60;49.80;;;;;;6127089;29;20035;-55
2023/03/08 01:19:22;;;;;;;1.15;0.70;;;20.90;50.30;;;;;;6126072;29;20496;-53
2023/03/08 01:22:23;;;;;;;1.13;0.52;;;20.80;50.40;;;;;;6127947;29;20044;-54
2023/03/08 01:25:25;;;;;;;;;;;20.50;50.30;;;;;;6127841;29;20504;-55
2023/03/08 01:28:27;;;;;;;2.40;0.93;;;20.60;50.50;;;;;;6127360;29;19926;-56
2023/03/08 01:31:29;;;;;;;1.38;0.80;;;20.50;50.20;;;;;;6127155;29;20044;-55
2023/03/08 01:34:33;;;;;;;1.45;0.70;;;20.50;51.00;;;;;;6126433;29;20067;-55
2023/03/08 01:37:35;;;;;;;1.55;0.57;;;20.60;50.60;;;;;;6127271;29;20099;-54
2023/03/08 01:40:36;;;;;;;2.47;0.90;;;20.90;50.80;;;;;;6127103;29;20067;-54
2023/03/08 01:43:39;;;;;;;1.52;0.50;;;20.70;50.90;;;;;;6127211;29;20151;-53
2023/03/08 01:46:44;;;;;;;1.40;0.85;;;20.80;51.00;;;;;;6127912;29;20047;-56
2023/03/08 01:49:57;;;;;;;1.50;0.88;;;20.60;51.00;;;;;;6127096;29;20071;-55
2023/03/08 01:52:59;;;;;;;1.75;0.88;;;20.70;51.10;;;;;;6125902;29;20044;-56
2023/03/08 01:56:01;;;;;;;1.30;0.80;;;20.70;51.30;;;;;;6127017;29;20059;-54
2023/03/08 01:59:03;;;;;;;2.28;1.00;;;20.80;51.50;;;;;;6126767;29;20052;-55
2023/03/08 02:02:05;;;;;;;1.58;0.80;;;20.70;51.50;;;;;;6127018;29;20128;-51
2023/03/08 02:05:10;;;;;;;2.05;0.88;;;20.80;51.70;;;;;;6126680;29;20109;-55
2023/03/08 02:08:13;;;;;;;1.38;0.80;;;20.70;51.80;;;;;;6126568;29;20042;-54
2023/03/08 02:11:19;;;;;;;2.47;1.02;;;20.60;51.90;;;;;;6126835;29;20523;-53
2023/03/08 02:14:20;;;;;;;1.20;0.80;;;20.80;52.20;;;;;;6126673;29;20540;-54
2023/03/08 02:17:25;;;;;;;1.45;0.75;;;20.50;52.20;;;;;;6126479;29;20091;-52
2023/03/08 02:20:30;;;;;;;1.60;0.88;;;20.80;52.50;;;;;;6126780;29;20044;-55
2023/03/08 02:23:32;;;;;;;2.00;0.80;;;20.50;52.60;;;;;;6109722;29;20040;-55
2023/03/08 02:26:36;;;;;;;2.95;0.88;;;20.70;52.80;;;;;;6126218;29;20047;-55
2023/03/08 02:29:40;;;;;;;2.75;0.80;;;20.80;53.00;;;;;;6126698;29;20068;-55
2023/03/08 02:32:43;;;;;;;1.70;0.60;;;20.80;53.20;;;;;;6125116;29;20082;-56
2023/03/08 02:35:45;;;;;;;1.70;0.65;;;20.60;53.20;;;;;;6126743;29;20101;-56
2023/03/08 02:38:47;;;;;;;1.13;0.60;;;20.60;53.40;;;;;;6126696;29;20115;-56
2023/03/08 02:41:48;;;;;;;1.48;0.77;;;20.80;53.70;;;;;;6126361;29;20055;-56
2023/03/08 02:44:49;;;;;;;;;;;20.80;53.90;;;;;;6129517;29;20365;-56
2023/03/08 02:47:51;;;;;;;0.90;0.52;;;20.60;53.80;;;;;;6131072;29;19945;-55
2023/03/08 02:50:53;;;;;;;1.58;0.70;;;20.80;53.80;;;;;;6130761;29;20130;-57
2023/03/08 02:53:55;;;;;;;;;;;20.50;53.90;;;;;;6131018;29;20055;-54
2023/03/08 02:56:59;;;;;;;0.65;0.28;;;20.80;54.20;;;;;;6130395;28;19922;-55
2023/03/08 03:00:03;;;;;;;1.15;0.60;;;20.60;53.90;;;;;;6130610;29;20134;-53
2023/03/08 03:03:05;;;;;;;0.90;0.40;;;20.60;54.30;;;;;;6130436;29;20059;-56
2023/03/08 03:06:14;;;;;;;0.55;0.35;;;20.70;54.60;;;;;;6130170;29;20048;-56
2023/03/08 03:09:20;;;;;;;1.38;0.40;;;20.70;54.90;;;;;;6130506;29;20517;-56
2023/03/08 03:12:23;;;;;;;0.98;0.30;;;20.60;54.90;;;;;;6130081;29;20050;-56
2023/03/08 03:15:24;;;;;;;1.17;0.40;;;20.50;55.00;;;;;;6130097;29;20054;-56
2023/03/08 03:18:30;;;;;;;0.63;0.32;;;20.50;55.00;;;;;;6130606;29;20044;-57
2023/03/08 03:21:31;;;;;;;0.50;0.30;;;20.80;55.20;;;;;;6130225;29;20047;-55
2023/03/08 03:24:34;;;;;;;0.82;0.30;;;20.70;55.20;;;;;;6129860;29;20058;-55
2023/03/08 03:27:40;;;;;;;0.40;0.22;;;20.60;55.20;;;;;;6130243;29;20055;-56
2023/03/08 03:30:41;;;;;;;0.60;0.30;;;20.80;55.30;;;;;;6129048;29;20134;-56
2023/03/08 03:33:46;;;;;;;0.65;0.20;;;20.90;55.40;;;;;;6130920;29;20116;-56
2023/03/08 03:36:48;;;;;;;0.65;0.30;;;20.60;55.30;;;;;;6128635;29;20048;-56
2023/03/08 03:39:50;;;;;;;0.70;0.40;;;20.90;55.50;;;;;;6129794;29;20052;-56
2023/03/08 03:42:52;;;;;;;0.55;0.30;;;20.70;55.40;;;;;;6129623;29;20055;-56
2023/03/08 03:45:56;;;;;;;0.70;0.30;;;20.60;55.40;;;;;;6129780;29;20087;-56
2023/03/08 03:48:58;;;;;;;0.40;0.30;;;20.50;55.40;;;;;;6112787;29;20056;-56
2023/03/08 03:52:05;;;;;;;0.60;0.40;;;20.70;55.50;;;;;;6129503;29;20389;-56
2023/03/08 03:55:15;;;;;;;0.45;0.25;;;20.70;55.50;;;;;;6129232;29;20066;-54
2023/03/08 03:58:18;;;;;;;0.52;0.30;;;20.80;55.50;;;;;;6129508;29;20046;-56
2023/03/08 04:01:23;;;;;;;0.65;0.20;;;20.90;55.60;;;;;;6129355;29;20564;-56
2023/03/08 04:04:27;;;;;;;0.52;0.40;;;20.70;55.40;;;;;;6129197;29;20138;-55
2023/03/08 04:07:29;;;;;;;0.50;0.30;;;20.90;55.60;;;;;;6129292;29;20142;-56
2023/03/08 04:10:34;;;;;;;0.20;0.20;;;20.90;55.50;;;;;;6112252;29;20428;-55
2023/03/08 04:13:37;;;;;;;1.00;0.60;;;20.70;55.30;;;;;;6129154;29;20103;-56
2023/03/08 04:16:40;;;;;;;0.90;0.40;;;20.60;55.30;;;;;;6127851;29;20040;-55
2023/03/08 04:19:49;;;;;;;1.15;0.40;;;20.90;55.40;;;;;;6129012;29;20126;-56
2023/03/08 04:22:51;;;;;;;1.02;0.52;;;20.80;55.30;;;;;;6128836;29;20052;-56
2023/03/08 04:26:02;;;;;;;0.60;0.20;;;20.80;55.20;;;;;;6129070;29;20051;-56
2023/03/08 04:29:05;;;;;;;0.57;0.30;;;20.70;55.10;;;;;;6112367;29;20052;-56
2023/03/08 04:32:09;;;;;;;1.55;0.30;;;20.60;55.10;;;;;;6127548;29;20460;-55
2023/03/08 04:35:19;;;;;;;0.70;0.30;;;20.70;55.10;;;;;;6128945;29;20106;-56
2023/03/08 04:38:26;;;;;;;0.85;0.30;;;20.60;55.10;;;;;;6128647;29;20048;-56
2023/03/08 04:41:33;;;;;;;0.43;0.30;;;20.90;55.20;;;;;;6128625;29;20452;-57
2023/03/08 04:44:46;;;;;;;1.17;0.40;;;20.70;55.10;;;;;;6128687;29;20472;-55
2023/03/08 04:47:51;;;;;;;0.95;0.40;;;20.90;55.10;;;;;;6128656;29;20044;-55
2023/03/08 04:50:55;;;;;;;0.55;0.20;;;21.00;55.10;;;;;;6128429;29;20071;-56
2023/03/08 05:03:48;;;;;;;0.68;0.40;;;21.00;54.90;;;;;;6128121;29;20444;-55
2023/03/08 05:06:53;;;;;;;0.95;0.32;;;20.70;54.80;;;;;;6111424;29;20102;-55
2023/03/08 05:24:40;;;;;;;1.00;0.65;;;20.90;55.00;;;;;;6128509;29;20050;-56
2023/03/08 05:27:47;;;;;;;1.52;0.50;;;20.60;55.00;;;;;;6110853;29;20408;-55
2023/03/08 05:30:49;;;;;;;1.45;0.45;;;20.60;55.10;;;;;;6127644;29;20135;-55
2023/03/08 05:38:47;;;;;;;0.73;0.40;;;20.80;55.30;;;;;;6128538;29;20046;-56
2023/03/08 05:41:50;;;;;;;1.23;0.70;;;20.60;55.20;;;;;;6127666;29;20035;-56
2023/03/08 05:44:57;;;;;;;1.35;0.60;;;20.60;55.20;;;;;;6127432;29;20110;-56
2023/03/08 05:48:03;;;;;;;1.05;0.60;;;20.70;55.30;;;;;;6126952;29;20114;-56
2023/03/08 05:56:10;;;;;;;2.60;0.57;;;20.80;55.30;;;;;;6127465;29;20035;-55
2023/03/08 05:59:15;;;;;;;1.08;0.60;;;20.60;55.20;;;;;;6110935;29;20043;-56
2023/03/08 06:03:08;;;;;;;0.70;0.40;;;20.80;55.90;;;;;;6127079;29;20052;-56
2023/03/08 06:07:28;;;;;;;1.10;0.60;;;21.00;55.40;;;;;;6100834;29;20048;-56
2023/03/08 06:10:37;;;;;;;1.27;0.40;;;20.90;55.30;;;;;;6126898;29;20047;-56
2023/03/08 06:13:39;;;;;;;;;;;20.90;55.40;;;;;;6127633;29;20062;-56
2023/03/08 06:16:41;;;;;;;0.73;0.40;;;20.90;55.40;;;;;;6126961;29;19978;-55
2023/03/08 06:33:11;;;;;;;0.50;0.40;;;20.80;55.10;;;;;;6126474;29;20040;-56
2023/03/08 06:36:15;;;;;;;0.43;0.20;;;20.80;55.20;;;;;;6126947;29;20048;-56
2023/03/08 06:39:19;;;;;;;0.47;0.20;;;21.00;55.30;;;;;;6125355;29;20051;-56
2023/03/08 06:42:28;;;;;;;0.30;0.20;;;20.70;55.10;;;;;;6126331;29;20075;-55
2023/03/08 06:45:45;;;;;;;0.30;0.20;;;20.90;55.20;;;;;;6126622;29;20492;-56
2023/03/08 06:48:48;;;;;;;0.35;0.30;;;20.70;55.10;;;;;;6126134;29;20050;-56
2023/03/08 06:51:51;;;;;;;0.60;0.20;;;21.00;55.20;;;;;;6126276;29;20056;-55
2023/03/08 06:54:53;;;;;;;1.30;0.40;;;20.90;55.10;;;;;;6125995;29;20524;-54
2023/03/08 06:57:54;;;;;;;;;;;20.90;55.10;;;;;;6126366;29;20054;-54
2023/03/08 07:00:58;;;;;;;0.52;0.28;;;20.90;55.10;;;;;;6125900;29;19969;-55
2023/03/08 07:04:00;;;;;;;0.77;0.30;;;20.80;54.90;;;;;;6125433;29;20130;-55
2023/03/08 07:07:02;;;;;;;0.20;0.20;;;20.90;54.90;;;;;;6125676;29;20390;-55
2023/03/08 07:10:04;;;;;;;0.50;0.32;;;20.80;54.90;;;;;;6126802;29;20039;-55
2023/03/08 07:13:06;;;;;;;0.30;0.20;;;20.70;54.90;;;;;;6124344;29;20051;-56
2023/03/08 07:16:10;;;;;;;0.90;0.50;;;20.70;55.00;;;;;;6125331;29;20048;-55
2023/03/08 07:19:12;;;;;;;0.32;0.30;;;21.00;55.10;;;;;;6125648;28;20075;-56
2023/03/08 07:22:14;;;;;;;0.47;0.20;;;20.70;55.00;;;;;;6125634;29;20555;-55
2023/03/08 07:25:18;;;;;;;0.40;0.22;;;21.00;55.70;;;;;;6092492;29;20436;-55
2023/03/08 07:28:19;;;;;;;1.05;0.25;;;21.00;55.00;;;;;;6124658;29;20039;-55
2023/03/08 07:31:21;;;;;;;;;;;21.10;55.10;;;;;;6128315;29;20073;-53
2023/03/08 07:34:23;;;;;;;0.50;0.30;;;21.10;55.10;;;;;;6129191;29;19922;-53
2023/03/08 07:37:24;;;;;;;1.08;0.30;;;21.00;54.80;;;;;;6129353;29;20040;-52
2023/03/08 07:40:26;;;;;;;0.95;0.30;;;21.00;54.80;;;;;;6129763;29;20043;-52
2023/03/08 07:43:27;;;;;;;0.35;0.20;;;21.10;54.80;;;;;;6129158;29;20059;-54
2023/03/08 07:46:31;;;;;;;0.82;0.40;;;20.90;54.60;;;;;;6129066;29;20051;-53
2023/03/08 07:49:33;;;;;;;;;;;21.10;54.60;;;;;;6129048;29;20087;-54
2023/03/08 07:52:37;;;;;;;6.10;1.13;;;21.20;54.50;;;;;;6129016;28;20001;-53
2023/03/08 07:55:38;;;;;;;0.70;0.28;;;21.20;54.30;;;;;;6128356;29;20170;-52
2023/03/08 07:58:40;;;;;;;0.77;0.30;;;21.20;54.30;;;;;;6128551;29;20088;-55
2023/03/08 08:01:41;;;;;;;;;;;21.10;54.20;;;;;;6128635;29;20044;-55
2023/03/08 08:04:43;;;;;;;0.60;0.35;;;21.30;54.30;;;;;;6128466;28;19962;-52
2023/03/08 08:07:46;;;;;;;3.75;0.30;;;21.00;54.00;;;;;;6126766;29;20048;-54
2023/03/08 08:10:48;;;;;;;0.90;0.40;;;21.00;53.90;;;;;;6128190;29;20036;-54
2023/03/08 08:13:49;;;;;;;;;;;21.10;54.00;;;;;;6128666;29;20043;-53
2023/03/08 08:16:51;;;;;;;0.32;0.20;;;21.30;54.00;;;;;;6128152;29;19923;-53
2023/03/08 08:19:53;;;;;;;0.35;0.25;;;21.30;53.90;;;;;;6127820;29;20515;-52
2023/03/08 08:22:54;;;;;;;0.35;0.25;;;21.30;54.00;;;;;;6128205;29;20444;-51
2023/03/08 08:25:56;;;;;;;0.52;0.20;;;21.10;53.90;;;;;;6128123;29;20392;-53
2023/03/08 08:28:58;;;;;;;0.45;0.22;;;21.40;54.00;;;;;;6126660;29;20051;-53
2023/03/08 08:31:59;;;;;;;0.35;0.17;;;21.40;54.10;;;;;;6128216;29;20130;-54
2023/03/08 08:35:01;;;;;;;;;;;21.30;54.00;;;;;;6128798;29;20051;-55
2023/03/08 08:38:03;;;;;;;0.60;0.40;;;21.20;54.00;;;;;;6128658;29;20367;-55
2023/03/08 08:41:07;;;;;;;;;;;21.50;54.10;;;;;;6128366;29;20098;-56
2023/03/08 08:44:08;;;;;;;0.50;0.25;;;21.20;54.00;;;;;;6127984;29;19923;-56
2023/03/08 08:47:12;;;;;;;0.38;0.20;;;21.30;53.80;;;;;;6127523;29;20047;-54
2023/03/08 08:50:15;;;;;;;0.60;0.20;;;21.50;53.90;;;;;;6128520;29;20043;-58
2023/03/08 08:53:17;;;;;;;0.85;0.43;;;21.70;54.00;;;;;;6127657;29;20118;-57
2023/03/08 08:56:20;;;;;;;0.60;0.40;;;21.20;53.80;;;;;;6127871;29;20062;-56
2023/03/08 08:59:30;;;;;;;1.98;0.30;;;21.50;53.60;;;;;;6128277;29;20145;-58
2023/03/08 09:02:31;;;;;;;;;;;21.60;53.60;;;;;;6127951;29;20047;-57
2023/03/08 09:05:37;;;;;;;0.70;0.40;;;21.60;53.60;;;;;;6126516;29;20363;-59
2023/03/08 09:08:39;;;;;;;0.68;0.47;;;21.60;53.50;;;;;;6151125;29;20092;-58
2023/03/08 09:11:40;;;;;;;;;;;21.40;53.30;;;;;;6151380;28;20047;-59
2023/03/08 09:14:56;;;;;;;0.73;0.40;;;21.50;53.40;;;;;;6151749;28;19949;-60
2023/03/08 09:17:58;;;;;;;0.88;0.50;;;21.40;53.30;;;;;;6150804;28;20043;-58
2023/03/08 09:21:02;;;;;;;0.70;0.30;;;21.40;53.30;;;;;;6151174;28;20043;-57
2023/03/08 09:24:08;;;;;;;1.95;0.52;;;21.50;53.20;;;;;;6150932;28;20071;-57
2023/03/08 09:27:09;;;;;;;0.80;0.55;;;21.50;53.30;;;;;;6149771;29;20514;-58
2023/03/08 09:30:12;;;;;;;;;;;21.60;53.40;;;;;;6151388;29;20059;-58
2023/03/08 09:33:13;;;;;;;0.73;0.32;;;21.80;53.40;;;;;;6150991;28;19970;-57
2023/03/08 09:36:15;;;;;;;;;;;21.50;53.10;;;;;;6150908;29;20055;-59
2023/03/08 09:39:17;;;;;;;0.75;0.40;;;21.50;53.10;;;;;;6151188;28;19923;-59
2023/03/08 09:42:22;;;;;;;;;;;21.70;53.20;;;;;;6150883;28;20047;-58
2023/03/08 09:45:27;;;;;;;0.73;0.20;;;21.80;53.20;;;;;;6150590;28;19922;-59
2023/03/08 09:48:30;;;;;;;0.70;0.35;;;21.30;52.90;;;;;;6149088;29;20519;-58
2023/03/08 09:51:37;;;;;;;0.52;0.17;;;21.60;53.10;;;;;;6150107;28;20050;-59
2023/03/08 09:54:40;;;;;;;0.32;0.20;;;21.50;53.10;;;;;;6149652;28;20048;-60
2023/03/08 09:57:48;;;;;;;0.47;0.20;;;21.60;53.20;;;;;;6149382;29;20071;-59
2023/03/08 10:00:51;;;;;;;0.50;0.28;;;21.80;53.30;;;;;;6148895;29;20039;-60
2023/03/08 10:04:08;;;;;;;0.77;0.30;;;21.60;53.20;;;;;;6149843;28;20456;-57
2023/03/08 10:07:24;;;;;;;0.55;0.20;;;21.60;53.30;;;;;;6149826;28;20073;-58
2023/03/08 10:10:35;;;;;;;0.25;0.20;;;21.70;53.40;;;;;;6150152;28;20035;-59
2023/03/08 10:13:39;;;;;;;0.60;0.30;;;21.50;53.30;;;;;;6150207;28;20043;-57
2023/03/08 10:16:45;;;;;;;0.45;0.30;;;21.60;53.40;;;;;;6148992;29;20499;-61
2023/03/08 10:19:54;;;;;;;1.17;0.40;;;21.60;53.70;;;;;;6134634;29;20356;-60
2023/03/08 10:23:01;;;;;;;0.60;0.30;;;21.60;53.70;;;;;;6150169;29;20054;-62
2023/03/08 10:26:08;;;;;;;0.45;0.30;;;21.60;53.80;;;;;;6149120;29;20074;-60
2023/03/08 10:29:11;;;;;;;0.43;0.20;;;21.60;53.80;;;;;;6148734;29;20054;-61
2023/03/08 10:32:13;;;;;;;0.75;0.32;;;21.60;53.90;;;;;;6149002;29;20455;-60
2023/03/08 10:35:15;;;;;;;0.90;0.25;;;21.80;54.10;;;;;;6149571;28;20130;-60
2023/03/08 10:38:18;;;;;;;0.50;0.20;;;21.60;54.00;;;;;;6132773;29;20039;-60
2023/03/08 10:41:19;;;;;;;1.23;0.20;;;21.80;54.10;;;;;;6149557;28;20039;-56
2023/03/08 10:44:29;;;;;;;;;;;21.70;54.20;;;;;;6150655;29;20050;-60
2023/03/08 10:47:33;;;;;;;1.05;0.22;;;21.60;54.20;;;;;;6149685;28;19945;-60
2023/03/08 10:50:36;;;;;;;0.98;0.35;;;21.70;54.20;;;;;;6148292;29;20059;-60
2023/03/08 10:53:38;;;;;;;0.90;0.68;;;21.70;54.40;;;;;;6132521;29;20047;-62
2023/03/08 10:56:43;;;;;;;1.20;0.70;;;21.70;54.50;;;;;;6150366;29;20122;-59
2023/03/08 10:59:49;;;;;;;0.90;0.52;;;21.80;54.60;;;;;;6132549;29;20530;-60
2023/03/08 11:03:02;;;;;;;1.30;0.90;;;21.90;54.80;;;;;;6148043;29;20122;-59
2023/03/08 11:06:12;;;;;;;1.50;0.90;;;21.90;55.00;;;;;;6150188;28;20062;-58
2023/03/08 11:09:21;;;;;;;0.90;0.63;;;21.80;55.00;;;;;;6153604;28;20047;-59
2023/03/08 11:12:24;;;;;;;1.45;0.55;;;22.00;55.10;;;;;;6136029;29;20039;-58
2023/03/08 11:15:27;;;;;;;1.77;0.63;;;21.70;55.00;;;;;;6151980;29;20051;-59
2023/03/08 11:18:41;;;;;;;1.05;0.50;;;22.00;55.10;;;;;;6153583;29;20054;-56
2023/03/08 11:21:51;;;;;;;1.50;0.70;;;21.90;55.70;;;;;;6153596;29;20039;-57
2023/03/08 11:25:10;;;;;;;1.20;0.68;;;21.90;55.00;;;;;;6153135;29;20043;-57
2023/03/08 11:28:33;;;;;;;1.00;0.50;;;21.90;55.20;;;;;;6152983;28;20252;-57
2023/03/08 11:31:42;;;;;;;0.60;0.40;;;22.00;54.90;;;;;;6153205;28;20047;-56
2023/03/08 11:34:57;;;;;;;0.80;0.50;;;21.90;54.70;;;;;;6153304;28;20400;-54
2023/03/08 11:38:05;;;;;;;0.60;0.40;;;22.00;54.60;;;;;;6153025;29;20043;-56
2023/03/08 11:50:58;;;;;;;1.75;0.40;;;22.00;54.30;;;;;;6152930;29;20028;-56
2023/03/08 11:54:11;;;;;;;2.40;0.60;;;22.00;54.30;;;;;;6153278;28;20146;-57
2023/03/08 11:57:16;;;;;;;0.75;0.40;;;21.90;54.20;;;;;;6152863;29;20462;-58
2023/03/08 12:00:23;;;;;;;0.98;0.50;;;22.20;54.30;;;;;;6152538;28;20039;-58
2023/03/08 12:03:29;;;;;;;1.13;0.70;;;22.10;54.20;;;;;;6152866;29;20511;-57
2023/03/08 12:06:37;;;;;;;0.80;0.50;;;22.00;54.20;;;;;;6151344;29;20130;-57
2023/03/08 12:09:54;;;;;;;1.20;0.30;;;22.10;54.10;;;;;;6151310;29;20054;-57
2023/03/08 12:13:02;;;;;;;1.88;0.65;;;22.10;54.10;;;;;;6151201;28;20046;-57
2023/03/08 12:16:12;;;;;;;0.55;0.30;;;22.00;54.00;;;;;;6152548;28;20389;-56
2023/03/08 12:19:23;;;;;;;1.02;0.52;;;21.90;53.90;;;;;;6151227;29;20051;-57
2023/03/08 12:22:38;;;;;;;0.93;0.67;;;22.70;54.30;;;;;;6152301;29;20150;-57
2023/03/08 12:25:41;;;;;;;0.68;0.45;;;22.20;54.10;;;;;;6152476;29;20305;-58
2023/03/08 12:28:50;;;;;;;2.67;0.50;;;22.10;53.90;;;;;;6152820;28;20051;-62
2023/03/08 12:31:52;;;;;;;1.00;0.50;;;21.90;53.90;;;;;;6135152;29;20047;-60
2023/03/08 12:35:01;;;;;;;1.08;0.50;;;22.00;53.90;;;;;;6152252;28;20102;-57
2023/03/08 12:38:24;;;;;;;1.05;0.30;;;22.20;54.10;;;;;;6151754;29;20054;-56
2023/03/08 12:41:28;;;;;;;0.70;0.40;;;22.20;54.20;;;;;;6152569;29;20519;-56
2023/03/08 12:44:32;;;;;;;0.77;0.32;;;21.90;54.00;;;;;;6135040;29;20050;-56
2023/03/08 12:47:33;;;;;;;1.10;0.38;;;22.00;54.20;;;;;;6151803;28;20050;-57
2023/03/08 12:50:38;;;;;;;;;;;22.20;54.40;;;;;;6152434;29;20051;-56
2023/03/08 12:53:43;;;;;;;0.70;0.40;;;22.20;54.30;;;;;;6152358;28;19933;-57
2023/03/08 12:56:51;;;;;;;1.08;0.40;;;22.10;54.30;;;;;;6151787;29;20047;-58
2023/03/08 12:59:57;;;;;;;0.55;0.35;;;22.10;54.30;;;;;;6150478;29;20047;-53
2023/03/08 13:03:03;;;;;;;0.88;0.50;;;22.10;54.40;;;;;;6150841;29;20043;-58
2023/03/08 13:06:33;;;;;;;0.80;0.40;;;22.00;54.30;;;;;;6134765;29;20051;-58
2023/03/08 13:09:43;;;;;;;1.15;0.60;;;22.30;54.50;;;;;;6151135;28;20051;-56
2023/03/08 13:13:05;;;;;;;1.92;0.28;;;22.30;54.40;;;;;;6151609;28;20570;-55
2023/03/08 13:16:19;;;;;;;1.45;0.57;;;22.30;54.40;;;;;;6152370;28;20097;-56
2023/03/08 13:19:25;;;;;;;0.80;0.45;;;22.30;54.40;;;;;;6150228;29;20071;-56
2023/03/08 13:22:33;;;;;;;1.80;0.60;;;22.30;54.50;;;;;;6149927;29;20071;-57
2023/03/08 13:25:49;;;;;;;0.60;0.30;;;22.30;54.40;;;;;;6150758;28;20488;-55
2023/03/08 13:28:55;;;;;;;1.05;0.30;;;22.50;54.60;;;;;;6150996;28;20035;-54
2023/03/08 13:31:56;;;;;;;1.75;0.40;;;22.20;54.40;;;;;;6150941;29;20101;-54
2023/03/08 13:34:59;;;;;;;0.93;0.50;;;22.30;54.30;;;;;;6151546;29;20529;-56
2023/03/08 13:38:01;;;;;;;3.95;0.40;;;22.40;54.40;;;;;;6149544;29;20043;-55
2023/03/08 13:41:04;;;;;;;0.65;0.40;;;22.40;54.40;;;;;;6150874;28;20126;-56
2023/03/08 13:44:12;;;;;;;1.20;0.30;;;22.30;54.40;;;;;;6150776;29;20051;-55
2023/03/08 13:47:22;;;;;;;1.20;0.35;;;22.30;54.40;;;;;;6150866;29;20047;-54
2023/03/08 13:50:28;;;;;;;1.17;0.40;;;22.40;54.50;;;;;;6150660;28;20467;-55
2023/03/08 13:53:36;;;;;;;2.42;0.40;;;22.40;54.50;;;;;;6149557;29;20129;-54
2023/03/08 13:56:38;;;;;;;0.70;0.30;;;22.40;54.50;;;;;;6150986;28;20047;-55
2023/03/08 13:59:47;;;;;;;1.88;0.90;;;22.40;54.50;;;;;;6150767;28;20506;-56
2023/03/08 14:02:51;;;;;;;2.63;0.70;;;22.20;54.40;;;;;;6151008;29;20479;-54
2023/03/08 14:05:53;;;;;;;2.10;0.50;;;22.40;54.50;;;;;;6150172;28;20047;-57
2023/03/08 14:08:58;;;;;;;;;;;22.40;54.50;;;;;;6150771;29;20512;-55
2023/03/08 14:12:03;;;;;;;0.75;0.43;;;22.40;54.50;;;;;;6150362;28;19922;-56
2023/03/08 14:15:06;;;;;;;1.20;0.38;;;22.60;54.50;;;;;;6150237;28;20054;-56
2023/03/08 14:18:19;;;;;;;1.70;0.40;;;22.60;54.50;;;;;;6151509;28;20043;-56
2023/03/08 14:21:25;;;;;;;1.10;0.35;;;22.40;54.40;;;;;;6150616;28;20543;-56
2023/03/08 14:24:29;;;;;;;0.88;0.38;;;22.40;54.40;;;;;;6148660;29;20111;-56
2023/03/08 14:27:37;;;;;;;1.25;0.30;;;22.50;54.30;;;;;;6150187;29;20455;-56
2023/03/08 14:30:46;;;;;;;0.90;0.30;;;22.60;54.30;;;;;;6149946;29;20404;-55
2023/03/08 14:33:56;;;;;;;0.60;0.30;;;22.60;54.20;;;;;;6149824;29;20055;-56
2023/03/08 14:37:00;;;;;;;1.73;0.30;;;22.60;54.10;;;;;;6149322;29;20071;-55
2023/03/08 14:40:24;;;;;;;2.05;0.50;;;22.60;54.00;;;;;;6153280;28;20047;-58
2023/03/08 14:43:28;;;;;;;1.02;0.30;;;22.70;54.00;;;;;;6157645;29;20052;-59
2023/03/08 14:46:30;;;;;;;3.90;0.40;;;22.70;53.90;;;;;;6157387;28;20051;-56
2023/03/08 14:49:32;;;;;;;1.45;0.30;;;22.70;53.80;;;;;;6157396;29;20114;-57
2023/03/08 14:52:42;;;;;;;0.38;0.30;;;22.70;53.80;;;;;;6157678;28;20506;-56
2023/03/08 14:55:44;;;;;;;1.38;0.32;;;22.70;53.70;;;;;;6157568;28;20051;-57
2023/03/08 14:58:48;;;;;;;;;;;22.80;53.60;;;;;;6158047;29;20058;-57
2023/03/08 15:01:49;;;;;;;0.40;0.20;;;22.80;53.50;;;;;;6157836;28;20264;-55
2023/03/08 15:04:51;;;;;;;0.85;0.40;;;22.80;53.40;;;;;;6158118;28;20058;-59
2023/03/08 15:07:52;;;;;;;;;;;22.80;53.30;;;;;;6158185;28;20488;-55
2023/03/08 15:10:54;;;;;;;;;;;22.80;53.30;;;;;;6158413;28;20387;-59
2023/03/08 15:13:59;;;;;;;1.80;0.47;;;22.70;53.10;;;;;;6157726;28;20371;-55
2023/03/08 15:17:00;;;;;;;0.95;0.40;;;22.90;53.20;;;;;;6156397;29;20175;-55
2023/03/08 15:20:05;;;;;;;1.33;0.57;;;22.90;53.20;;;;;;6157403;28;20054;-50
2023/03/08 15:23:07;;;;;;;1.15;0.40;;;22.90;53.10;;;;;;6157532;29;20070;-54
2023/03/08 15:26:13;;;;;;;1.25;0.60;;;22.90;52.90;;;;;;6156012;29;20151;-55
2023/03/08 15:29:25;;;;;;;1.25;0.38;;;22.90;52.80;;;;;;6155501;29;20047;-57
2023/03/08 15:32:27;;;;;;;1.15;0.50;;;22.80;52.70;;;;;;6157325;28;20044;-55
2023/03/08 15:35:28;;;;;;;;;;;22.90;52.70;;;;;;6158140;28;20118;-53
2023/03/08 15:38:30;;;;;;;1.48;0.52;;;22.90;52.60;;;;;;6157498;28;20299;-54
2023/03/08 15:41:31;;;;;;;0.80;0.40;;;22.90;52.50;;;;;;6156993;29;20067;-56
2023/03/08 15:44:33;;;;;;;;;;;23.00;52.50;;;;;;6157268;28;20043;-54
2023/03/08 15:47:35;;;;;;;2.15;0.50;;;22.90;52.40;;;;;;6156614;28;19934;-53
2023/03/08 15:50:38;;;;;;;1.33;0.47;;;22.90;52.30;;;;;;6155582;28;20054;-56
2023/03/08 15:53:42;;;;;;;1.77;0.63;;;22.90;52.20;;;;;;6151783;29;20050;-56
2023/03/08 15:56:43;;;;;;;1.00;0.45;;;22.80;52.20;;;;;;6153575;29;20395;-54
2023/03/08 15:59:45;;;;;;;;;;;22.90;52.20;;;;;;6154004;28;20043;-53
2023/03/08 16:02:51;;;;;;;1.50;0.50;;;22.90;52.10;;;;;;6153003;28;20351;-55
2023/03/08 16:05:52;;;;;;;1.30;0.57;;;22.90;52.00;;;;;;6153043;28;20078;-54
2023/03/08 16:08:54;;;;;;;1.25;0.40;;;23.00;52.00;;;;;;6152882;28;20051;-54
2023/03/08 16:11:55;;;;;;;1.17;0.43;;;22.80;51.80;;;;;;6152955;28;20090;-54
2023/03/08 16:14:57;;;;;;;;;;;23.00;51.80;;;;;;6152695;29;20054;-54
2023/03/08 16:18:02;;;;;;;2.25;0.50;;;23.00;51.80;;;;;;6152314;28;20005;-52
2023/03/08 16:21:07;;;;;;;0.95;0.47;;;22.90;51.60;;;;;;6152202;29;20490;-55
2023/03/08 16:24:10;;;;;;;2.10;0.63;;;22.90;51.60;;;;;;6150631;29;20559;-55
2023/03/08 16:27:12;;;;;;;1.48;0.50;;;23.00;51.60;;;;;;6152246;28;20047;-57
2023/03/08 16:30:15;;;;;;;1.17;0.50;;;23.00;51.60;;;;;;6152703;29;20043;-56
2023/03/08 16:33:18;;;;;;;1.83;0.65;;;23.00;51.50;;;;;;6153143;28;20038;-54
2023/03/08 16:36:19;;;;;;;1.90;0.68;;;23.10;51.50;;;;;;6152495;28;20056;-56
2023/03/08 16:39:21;;;;;;;1.15;0.60;;;23.10;51.50;;;;;;6152046;28;20500;-51
2023/03/08 16:42:23;;;;;;;1.42;0.50;;;23.00;51.40;;;;;;6152575;29;20051;-57
2023/03/08 16:45:25;;;;;;;2.65;1.00;;;23.10;51.40;;;;;;6152515;28;20407;-55
2023/03/08 16:48:27;;;;;;;3.28;0.80;;;23.00;51.40;;;;;;6152456;28;20047;-55
2023/03/08 16:51:30;;;;;;;1.58;0.75;;;23.10;51.30;;;;;;6152279;29;20404;-55
2023/03/08 16:54:31;;;;;;;2.40;0.60;;;23.10;51.40;;;;;;6152484;29;20043;-56
2023/03/08 16:57:34;;;;;;;1.05;0.60;;;23.10;51.30;;;;;;6151642;29;20050;-54
2023/03/08 17:00:39;;;;;;;2.45;0.95;;;23.20;51.30;;;;;;6152088;29;20079;-53
2023/03/08 17:03:41;;;;;;;2.65;0.50;;;23.00;51.10;;;;;;6150499;28;20106;-53
2023/03/08 17:06:45;;;;;;;3.55;0.93;;;23.20;51.20;;;;;;6151630;28;20051;-50
2023/03/08 17:09:49;;;;;;;2.58;0.70;;;23.10;51.00;;;;;;6151884;28;20134;-53